sensor_id;sensor_type;location;lat;lon;timestamp;P1;durP1;ratioP1;P2;durP2;ratioP2
24216;SDS011;12356;49.386;8.688;2022-10-22T00:02:04;3.58;;;1.80;;
24216;SDS011;12356;49.386;8.688;2022-10-22T00:04:36;7.20;;;1.92;;
24216;SDS011;12356;49.386;8.688;2022-10-22T00:07:07;6.18;;;1.83;;
24216;SDS011;12356;49.386;8.688;2022-10-22T00:09:37;3.33;;;1.67;;
24216;SDS011;12356;49.386;8.688;2022-10-22T00:12:09;8.07;;;1.70;;
24216;SDS011;12356;49.386;8.688;2022-10-22T00:14:41;4.18;;;1.45;;
24216;SDS011;12356;49.386;8.688;2022-10-22T00:17:11;6.93;;;1.80;;
24216;SDS011;12356;49.386;8.688;2022-10-22T00:19:43;5.72;;;1.60;;
24216;SDS011;12356;49.386;8.688;2022-10-22T00:22:14;5.70;;;1.50;;
24216;SDS011;12356;49.386;8.688;2022-10-22T00:24:44;4.35;;;1.58;;
24216;SDS011;12356;49.386;8.688;2022-10-22T00:27:15;3.05;;;1.33;;
24216;SDS011;12356;49.386;8.688;2022-10-22T00:29:46;3.40;;;1.30;;
24216;SDS011;12356;49.386;8.688;2022-10-22T00:32:17;4.28;;;1.23;;
24216;SDS011;12356;49.386;8.688;2022-10-22T00:34:48;4.38;;;1.30;;
24216;SDS011;12356;49.386;8.688;2022-10-22T00:37:18;3.88;;;1.38;;
24216;SDS011;12356;49.386;8.688;2022-10-22T00:39:49;4.00;;;1.50;;
24216;SDS011;12356;49.386;8.688;2022-10-22T00:42:21;3.83;;;1.55;;
24216;SDS011;12356;49.386;8.688;2022-10-22T00:45:06;6.50;;;1.52;;
24216;SDS011;12356;49.386;8.688;2022-10-22T00:47:41;6.45;;;1.48;;
24216;SDS011;12356;49.386;8.688;2022-10-22T00:50:19;5.05;;;1.55;;
24216;SDS011;12356;49.386;8.688;2022-10-22T00:52:57;6.53;;;1.60;;
24216;SDS011;12356;49.386;8.688;2022-10-22T00:55:28;5.57;;;1.75;;
24216;SDS011;12356;49.386;8.688;2022-10-22T00:58:00;3.38;;;1.38;;
24216;SDS011;12356;49.386;8.688;2022-10-22T01:00:31;5.25;;;1.20;;
24216;SDS011;12356;49.386;8.688;2022-10-22T01:03:02;4.63;;;1.15;;
24216;SDS011;12356;49.386;8.688;2022-10-22T01:05:38;2.25;;;1.20;;
24216;SDS011;12356;49.386;8.688;2022-10-22T01:08:17;3.95;;;1.23;;
24216;SDS011;12356;49.386;8.688;2022-10-22T01:11:07;3.42;;;1.00;;
24216;SDS011;12356;49.386;8.688;2022-10-22T01:22:28;3.80;;;1.10;;
24216;SDS011;12356;49.386;8.688;2022-10-22T01:27:30;2.28;;;0.80;;
24216;SDS011;12356;49.386;8.688;2022-10-22T01:30:10;4.10;;;0.90;;
24216;SDS011;12356;49.386;8.688;2022-10-22T01:32:47;2.30;;;0.70;;
24216;SDS011;12356;49.386;8.688;2022-10-22T01:35:28;3.75;;;0.80;;
24216;SDS011;12356;49.386;8.688;2022-10-22T01:38:03;7.93;;;1.15;;
24216;SDS011;12356;49.386;8.688;2022-10-22T01:40:39;3.05;;;0.90;;
24216;SDS011;12356;49.386;8.688;2022-10-22T01:43:11;2.70;;;0.90;;
24216;SDS011;12356;49.386;8.688;2022-10-22T01:45:43;1.25;;;0.93;;
24216;SDS011;12356;49.386;8.688;2022-10-22T01:51:37;2.05;;;0.77;;
24216;SDS011;12356;49.386;8.688;2022-10-22T01:57:08;3.45;;;0.82;;
24216;SDS011;12356;49.386;8.688;2022-10-22T02:05:07;2.17;;;0.93;;
24216;SDS011;12356;49.386;8.688;2022-10-22T02:07:45;2.92;;;1.10;;
24216;SDS011;12356;49.386;8.688;2022-10-22T02:10:18;1.42;;;0.90;;
24216;SDS011;12356;49.386;8.688;2022-10-22T02:12:51;4.63;;;1.23;;
24216;SDS011;12356;49.386;8.688;2022-10-22T02:15:24;3.10;;;0.90;;
24216;SDS011;12356;49.386;8.688;2022-10-22T02:17:58;3.03;;;1.20;;
24216;SDS011;12356;49.386;8.688;2022-10-22T02:20:31;2.00;;;1.17;;
24216;SDS011;12356;49.386;8.688;2022-10-22T02:23:04;5.00;;;1.20;;
24216;SDS011;12356;49.386;8.688;2022-10-22T02:25:35;3.08;;;1.20;;
24216;SDS011;12356;49.386;8.688;2022-10-22T02:30:53;5.70;;;1.00;;
24216;SDS011;12356;49.386;8.688;2022-10-22T02:33:27;2.55;;;0.82;;
24216;SDS011;12356;49.386;8.688;2022-10-22T02:36:02;1.58;;;0.80;;
24216;SDS011;12356;49.386;8.688;2022-10-22T02:38:33;1.58;;;0.80;;
24216;SDS011;12356;49.386;8.688;2022-10-22T02:41:06;2.30;;;0.80;;
24216;SDS011;12356;49.386;8.688;2022-10-22T02:43:43;2.83;;;0.70;;
24216;SDS011;12356;49.386;8.688;2022-10-22T02:46:17;1.10;;;0.80;;
24216;SDS011;12356;49.386;8.688;2022-10-22T02:48:48;7.63;;;0.70;;
24216;SDS011;12356;49.386;8.688;2022-10-22T02:51:19;3.83;;;0.70;;
24216;SDS011;12356;49.386;8.688;2022-10-22T02:53:49;3.78;;;0.90;;
24216;SDS011;12356;49.386;8.688;2022-10-22T02:56:20;4.70;;;0.70;;
24216;SDS011;12356;49.386;8.688;2022-10-22T02:58:51;2.72;;;0.70;;
24216;SDS011;12356;49.386;8.688;2022-10-22T03:01:21;4.43;;;0.93;;
24216;SDS011;12356;49.386;8.688;2022-10-22T03:03:52;4.05;;;0.60;;
24216;SDS011;12356;49.386;8.688;2022-10-22T03:06:23;3.85;;;0.60;;
24216;SDS011;12356;49.386;8.688;2022-10-22T03:08:53;3.78;;;0.90;;
24216;SDS011;12356;49.386;8.688;2022-10-22T03:11:24;2.33;;;0.70;;
24216;SDS011;12356;49.386;8.688;2022-10-22T03:13:55;3.13;;;0.70;;
24216;SDS011;12356;49.386;8.688;2022-10-22T03:16:25;1.58;;;0.50;;
24216;SDS011;12356;49.386;8.688;2022-10-22T03:18:56;2.92;;;0.75;;
24216;SDS011;12356;49.386;8.688;2022-10-22T03:21:28;13.57;;;0.98;;
24216;SDS011;12356;49.386;8.688;2022-10-22T03:24:06;2.50;;;0.70;;
24216;SDS011;12356;49.386;8.688;2022-10-22T03:26:41;4.70;;;0.63;;
24216;SDS011;12356;49.386;8.688;2022-10-22T03:29:14;1.85;;;0.70;;
24216;SDS011;12356;49.386;8.688;2022-10-22T03:31:45;4.50;;;0.65;;
24216;SDS011;12356;49.386;8.688;2022-10-22T03:34:16;1.75;;;0.50;;
24216;SDS011;12356;49.386;8.688;2022-10-22T03:36:47;1.38;;;0.50;;
24216;SDS011;12356;49.386;8.688;2022-10-22T03:39:18;2.63;;;0.98;;
24216;SDS011;12356;49.386;8.688;2022-10-22T03:44:22;1.95;;;0.75;;
24216;SDS011;12356;49.386;8.688;2022-10-22T03:46:53;2.70;;;0.60;;
24216;SDS011;12356;49.386;8.688;2022-10-22T03:49:23;3.90;;;0.70;;
24216;SDS011;12356;49.386;8.688;2022-10-22T03:51:54;3.25;;;0.80;;
24216;SDS011;12356;49.386;8.688;2022-10-22T03:54:25;3.20;;;0.70;;
24216;SDS011;12356;49.386;8.688;2022-10-22T03:56:55;8.77;;;0.75;;
24216;SDS011;12356;49.386;8.688;2022-10-22T03:59:26;2.40;;;0.90;;
24216;SDS011;12356;49.386;8.688;2022-10-22T04:01:57;1.30;;;0.50;;
24216;SDS011;12356;49.386;8.688;2022-10-22T04:04:27;1.67;;;0.60;;
24216;SDS011;12356;49.386;8.688;2022-10-22T04:06:58;3.45;;;0.68;;
24216;SDS011;12356;49.386;8.688;2022-10-22T04:09:32;0.98;;;0.63;;
24216;SDS011;12356;49.386;8.688;2022-10-22T04:12:03;0.95;;;0.65;;
24216;SDS011;12356;49.386;8.688;2022-10-22T04:14:35;1.73;;;0.57;;
24216;SDS011;12356;49.386;8.688;2022-10-22T04:17:06;1.38;;;0.60;;
24216;SDS011;12356;49.386;8.688;2022-10-22T04:19:36;4.88;;;0.70;;
24216;SDS011;12356;49.386;8.688;2022-10-22T04:22:07;2.47;;;0.70;;
24216;SDS011;12356;49.386;8.688;2022-10-22T04:24:38;2.95;;;0.80;;
24216;SDS011;12356;49.386;8.688;2022-10-22T04:27:08;1.83;;;0.60;;
24216;SDS011;12356;49.386;8.688;2022-10-22T04:29:39;3.00;;;0.70;;
24216;SDS011;12356;49.386;8.688;2022-10-22T04:32:09;1.90;;;0.70;;
24216;SDS011;12356;49.386;8.688;2022-10-22T04:34:40;1.25;;;0.50;;
24216;SDS011;12356;49.386;8.688;2022-10-22T04:37:11;3.97;;;0.70;;
24216;SDS011;12356;49.386;8.688;2022-10-22T04:39:41;3.47;;;0.80;;
24216;SDS011;12356;49.386;8.688;2022-10-22T04:42:12;7.35;;;0.63;;
24216;SDS011;12356;49.386;8.688;2022-10-22T04:44:43;4.38;;;0.85;;
24216;SDS011;12356;49.386;8.688;2022-10-22T04:47:13;3.70;;;0.80;;
24216;SDS011;12356;49.386;8.688;2022-10-22T04:49:44;3.85;;;0.90;;
24216;SDS011;12356;49.386;8.688;2022-10-22T04:52:14;5.32;;;0.75;;
24216;SDS011;12356;49.386;8.688;2022-10-22T04:54:45;1.02;;;0.60;;
24216;SDS011;12356;49.386;8.688;2022-10-22T04:57:16;2.25;;;0.95;;
24216;SDS011;12356;49.386;8.688;2022-10-22T04:59:47;0.90;;;0.85;;
24216;SDS011;12356;49.386;8.688;2022-10-22T05:02:17;4.32;;;1.10;;
24216;SDS011;12356;49.386;8.688;2022-10-22T05:04:48;1.52;;;0.80;;
24216;SDS011;12356;49.386;8.688;2022-10-22T05:07:19;2.53;;;0.98;;
24216;SDS011;12356;49.386;8.688;2022-10-22T05:09:49;5.00;;;0.75;;
24216;SDS011;12356;49.386;8.688;2022-10-22T05:12:20;2.35;;;0.95;;
24216;SDS011;12356;49.386;8.688;2022-10-22T05:14:50;3.42;;;1.02;;
24216;SDS011;12356;49.386;8.688;2022-10-22T05:17:21;3.13;;;0.70;;
24216;SDS011;12356;49.386;8.688;2022-10-22T05:19:52;3.50;;;0.82;;
24216;SDS011;12356;49.386;8.688;2022-10-22T05:22:22;3.95;;;0.70;;
24216;SDS011;12356;49.386;8.688;2022-10-22T05:24:53;2.45;;;0.90;;
24216;SDS011;12356;49.386;8.688;2022-10-22T05:27:23;1.15;;;0.70;;
24216;SDS011;12356;49.386;8.688;2022-10-22T05:29:54;1.17;;;0.77;;
24216;SDS011;12356;49.386;8.688;2022-10-22T05:32:25;1.23;;;0.73;;
24216;SDS011;12356;49.386;8.688;2022-10-22T05:34:55;3.85;;;0.90;;
24216;SDS011;12356;49.386;8.688;2022-10-22T05:37:26;1.15;;;0.70;;
24216;SDS011;12356;49.386;8.688;2022-10-22T05:39:56;2.78;;;0.80;;
24216;SDS011;12356;49.386;8.688;2022-10-22T05:42:30;4.20;;;0.80;;
24216;SDS011;12356;49.386;8.688;2022-10-22T05:45:01;1.88;;;0.60;;
24216;SDS011;12356;49.386;8.688;2022-10-22T05:47:32;0.80;;;0.70;;
24216;SDS011;12356;49.386;8.688;2022-10-22T05:50:03;1.42;;;0.85;;
24216;SDS011;12356;49.386;8.688;2022-10-22T05:52:34;3.08;;;0.93;;
24216;SDS011;12356;49.386;8.688;2022-10-22T05:55:04;3.83;;;0.60;;
24216;SDS011;12356;49.386;8.688;2022-10-22T05:57:35;2.67;;;0.65;;
24216;SDS011;12356;49.386;8.688;2022-10-22T06:00:06;2.45;;;0.60;;
24216;SDS011;12356;49.386;8.688;2022-10-22T06:02:37;1.80;;;0.65;;
24216;SDS011;12356;49.386;8.688;2022-10-22T06:05:08;0.75;;;0.65;;
24216;SDS011;12356;49.386;8.688;2022-10-22T06:07:38;3.05;;;0.70;;
24216;SDS011;12356;49.386;8.688;2022-10-22T06:10:12;5.07;;;0.70;;
24216;SDS011;12356;49.386;8.688;2022-10-22T06:12:47;4.32;;;0.90;;
24216;SDS011;12356;49.386;8.688;2022-10-22T06:15:18;4.88;;;1.00;;
24216;SDS011;12356;49.386;8.688;2022-10-22T06:17:49;4.72;;;0.80;;
24216;SDS011;12356;49.386;8.688;2022-10-22T06:20:20;1.65;;;0.80;;
24216;SDS011;12356;49.386;8.688;2022-10-22T06:22:50;2.28;;;0.70;;
24216;SDS011;12356;49.386;8.688;2022-10-22T06:25:21;3.05;;;0.70;;
24216;SDS011;12356;49.386;8.688;2022-10-22T06:27:51;2.28;;;0.75;;
24216;SDS011;12356;49.386;8.688;2022-10-22T06:30:22;4.97;;;0.93;;
24216;SDS011;12356;49.386;8.688;2022-10-22T06:32:54;2.83;;;0.80;;
24216;SDS011;12356;49.386;8.688;2022-10-22T06:35:25;2.25;;;0.80;;
24216;SDS011;12356;49.386;8.688;2022-10-22T06:37:56;1.30;;;0.70;;
24216;SDS011;12356;49.386;8.688;2022-10-22T06:40:26;0.75;;;0.60;;
24216;SDS011;12356;49.386;8.688;2022-10-22T06:43:00;2.45;;;0.80;;
24216;SDS011;12356;49.386;8.688;2022-10-22T06:45:30;2.53;;;0.70;;
24216;SDS011;12356;49.386;8.688;2022-10-22T06:48:02;1.42;;;0.80;;
24216;SDS011;12356;49.386;8.688;2022-10-22T06:50:33;1.20;;;0.82;;
24216;SDS011;12356;49.386;8.688;2022-10-22T06:53:04;1.83;;;0.98;;
24216;SDS011;12356;49.386;8.688;2022-10-22T06:55:34;3.83;;;0.80;;
24216;SDS011;12356;49.386;8.688;2022-10-22T06:58:05;4.43;;;1.00;;
24216;SDS011;12356;49.386;8.688;2022-10-22T07:00:36;5.32;;;0.98;;
24216;SDS011;12356;49.386;8.688;2022-10-22T07:03:07;1.55;;;0.95;;
24216;SDS011;12356;49.386;8.688;2022-10-22T07:05:41;3.10;;;1.10;;
24216;SDS011;12356;49.386;8.688;2022-10-22T07:08:11;4.65;;;0.80;;
24216;SDS011;12356;49.386;8.688;2022-10-22T07:10:42;3.45;;;0.90;;
24216;SDS011;12356;49.386;8.688;2022-10-22T07:13:12;2.10;;;0.70;;
24216;SDS011;12356;49.386;8.688;2022-10-22T07:15:43;1.13;;;0.90;;
24216;SDS011;12356;49.386;8.688;2022-10-22T07:18:14;3.55;;;0.70;;
24216;SDS011;12356;49.386;8.688;2022-10-22T07:20:45;1.02;;;0.63;;
24216;SDS011;12356;49.386;8.688;2022-10-22T07:23:16;3.25;;;0.77;;
24216;SDS011;12356;49.386;8.688;2022-10-22T07:25:47;2.15;;;0.90;;
24216;SDS011;12356;49.386;8.688;2022-10-22T07:28:18;1.80;;;0.70;;
24216;SDS011;12356;49.386;8.688;2022-10-22T07:30:49;2.55;;;0.80;;
24216;SDS011;12356;49.386;8.688;2022-10-22T07:33:20;2.13;;;0.70;;
24216;SDS011;12356;49.386;8.688;2022-10-22T07:35:55;9.23;;;0.85;;
24216;SDS011;12356;49.386;8.688;2022-10-22T07:38:27;2.95;;;0.60;;
24216;SDS011;12356;49.386;8.688;2022-10-22T07:40:58;0.85;;;0.60;;
24216;SDS011;12356;49.386;8.688;2022-10-22T07:43:29;1.67;;;0.70;;
24216;SDS011;12356;49.386;8.688;2022-10-22T07:45:59;2.40;;;0.57;;
24216;SDS011;12356;49.386;8.688;2022-10-22T07:48:31;1.23;;;0.55;;
24216;SDS011;12356;49.386;8.688;2022-10-22T07:51:02;4.13;;;0.60;;
24216;SDS011;12356;49.386;8.688;2022-10-22T07:53:33;6.45;;;0.90;;
24216;SDS011;12356;49.386;8.688;2022-10-22T07:56:04;2.17;;;0.60;;
24216;SDS011;12356;49.386;8.688;2022-10-22T07:58:35;0.93;;;0.70;;
24216;SDS011;12356;49.386;8.688;2022-10-22T08:01:06;0.85;;;0.60;;
24216;SDS011;12356;49.386;8.688;2022-10-22T08:03:37;1.40;;;0.60;;
24216;SDS011;12356;49.386;8.688;2022-10-22T08:06:09;1.25;;;0.60;;
24216;SDS011;12356;49.386;8.688;2022-10-22T08:08:42;5.78;;;0.80;;
24216;SDS011;12356;49.386;8.688;2022-10-22T08:11:14;7.82;;;0.90;;
24216;SDS011;12356;49.386;8.688;2022-10-22T08:13:45;2.20;;;0.70;;
24216;SDS011;12356;49.386;8.688;2022-10-22T08:16:15;1.75;;;0.60;;
24216;SDS011;12356;49.386;8.688;2022-10-22T08:18:46;2.20;;;0.75;;
24216;SDS011;12356;49.386;8.688;2022-10-22T08:21:17;1.77;;;0.70;;
24216;SDS011;12356;49.386;8.688;2022-10-22T08:23:47;2.15;;;0.60;;
24216;SDS011;12356;49.386;8.688;2022-10-22T08:26:19;1.00;;;0.60;;
24216;SDS011;12356;49.386;8.688;2022-10-22T08:28:50;0.63;;;0.60;;
24216;SDS011;12356;49.386;8.688;2022-10-22T08:31:20;1.63;;;0.60;;
24216;SDS011;12356;49.386;8.688;2022-10-22T08:33:51;2.67;;;0.70;;
24216;SDS011;12356;49.386;8.688;2022-10-22T08:36:22;1.98;;;0.63;;
24216;SDS011;12356;49.386;8.688;2022-10-22T08:38:52;2.25;;;0.80;;
24216;SDS011;12356;49.386;8.688;2022-10-22T08:41:23;1.30;;;0.80;;
24216;SDS011;12356;49.386;8.688;2022-10-22T08:43:58;2.70;;;0.68;;
24216;SDS011;12356;49.386;8.688;2022-10-22T08:49:45;2.42;;;0.90;;
24216;SDS011;12356;49.386;8.688;2022-10-22T08:52:16;1.73;;;0.95;;
24216;SDS011;12356;49.386;8.688;2022-10-22T08:54:52;1.00;;;0.70;;
24216;SDS011;12356;49.386;8.688;2022-10-22T09:05:38;2.15;;;0.75;;
24216;SDS011;12356;49.386;8.688;2022-10-22T09:08:17;0.98;;;0.70;;
24216;SDS011;12356;49.386;8.688;2022-10-22T09:10:50;4.03;;;0.63;;
24216;SDS011;12356;49.386;8.688;2022-10-22T09:13:26;1.98;;;0.80;;
24216;SDS011;12356;49.386;8.688;2022-10-22T09:15:59;2.33;;;0.73;;
24216;SDS011;12356;49.386;8.688;2022-10-22T09:18:36;2.05;;;1.00;;
24216;SDS011;12356;49.386;8.688;2022-10-22T09:26:25;0.77;;;0.50;;
24216;SDS011;12356;49.386;8.688;2022-10-22T09:28:58;1.30;;;0.90;;
24216;SDS011;12356;49.386;8.688;2022-10-22T09:31:30;1.73;;;0.77;;
24216;SDS011;12356;49.386;8.688;2022-10-22T09:34:02;7.95;;;0.93;;
24216;SDS011;12356;49.386;8.688;2022-10-22T09:36:36;1.95;;;0.70;;
24216;SDS011;12356;49.386;8.688;2022-10-22T09:42:10;1.02;;;0.90;;
24216;SDS011;12356;49.386;8.688;2022-10-22T09:44:51;1.92;;;0.90;;
24216;SDS011;12356;49.386;8.688;2022-10-22T09:47:34;1.35;;;0.75;;
24216;SDS011;12356;49.386;8.688;2022-10-22T09:52:38;4.25;;;0.73;;
24216;SDS011;12356;49.386;8.688;2022-10-22T09:55:13;1.40;;;0.50;;
24216;SDS011;12356;49.386;8.688;2022-10-22T09:57:51;2.38;;;0.70;;
24216;SDS011;12356;49.386;8.688;2022-10-22T10:00:24;1.88;;;0.85;;
24216;SDS011;12356;49.386;8.688;2022-10-22T10:02:56;1.33;;;0.82;;
24216;SDS011;12356;49.386;8.688;2022-10-22T10:05:30;3.47;;;0.80;;
24216;SDS011;12356;49.386;8.688;2022-10-22T10:08:12;2.90;;;0.70;;
24216;SDS011;12356;49.386;8.688;2022-10-22T10:10:53;0.90;;;0.73;;
24216;SDS011;12356;49.386;8.688;2022-10-22T10:16:42;4.82;;;0.73;;
24216;SDS011;12356;49.386;8.688;2022-10-22T10:19:31;4.65;;;0.80;;
24216;SDS011;12356;49.386;8.688;2022-10-22T10:30:05;1.00;;;0.70;;
24216;SDS011;12356;49.386;8.688;2022-10-22T10:38:27;6.13;;;0.85;;
24216;SDS011;12356;49.386;8.688;2022-10-22T10:49:34;1.35;;;1.00;;
24216;SDS011;12356;49.386;8.688;2022-10-22T10:52:30;3.10;;;1.08;;
24216;SDS011;12356;49.386;8.688;2022-10-22T10:58:09;4.07;;;1.00;;
24216;SDS011;12356;49.386;8.688;2022-10-22T11:06:22;1.60;;;0.80;;
24216;SDS011;12356;49.386;8.688;2022-10-22T11:11:31;5.38;;;1.00;;
24216;SDS011;12356;49.386;8.688;2022-10-22T11:14:24;4.53;;;0.80;;
24216;SDS011;12356;49.386;8.688;2022-10-22T11:16:58;3.70;;;0.90;;
24216;SDS011;12356;49.386;8.688;2022-10-22T11:19:36;3.05;;;1.00;;
24216;SDS011;12356;49.386;8.688;2022-10-22T11:30:23;2.00;;;0.75;;
24216;SDS011;12356;49.386;8.688;2022-10-22T11:32:59;2.22;;;1.00;;
24216;SDS011;12356;49.386;8.688;2022-10-22T11:35:33;4.45;;;0.80;;
24216;SDS011;12356;49.386;8.688;2022-10-22T11:38:09;1.75;;;0.90;;
24216;SDS011;12356;49.386;8.688;2022-10-22T11:40:53;8.00;;;1.00;;
24216;SDS011;12356;49.386;8.688;2022-10-22T11:43:32;1.98;;;0.95;;
24216;SDS011;12356;49.386;8.688;2022-10-22T11:46:24;4.00;;;1.23;;
24216;SDS011;12356;49.386;8.688;2022-10-22T11:49:02;6.15;;;1.13;;
24216;SDS011;12356;49.386;8.688;2022-10-22T11:51:43;3.78;;;1.20;;
24216;SDS011;12356;49.386;8.688;2022-10-22T11:57:16;2.80;;;1.00;;
24216;SDS011;12356;49.386;8.688;2022-10-22T11:59:50;2.70;;;1.08;;
24216;SDS011;12356;49.386;8.688;2022-10-22T12:08:13;4.57;;;1.10;;
24216;SDS011;12356;49.386;8.688;2022-10-22T12:10:57;5.40;;;1.20;;
24216;SDS011;12356;49.386;8.688;2022-10-22T12:13:49;2.88;;;0.95;;
24216;SDS011;12356;49.386;8.688;2022-10-22T12:21:47;3.85;;;1.42;;
24216;SDS011;12356;49.386;8.688;2022-10-22T12:24:22;2.38;;;1.25;;
24216;SDS011;12356;49.386;8.688;2022-10-22T12:26:54;3.05;;;1.30;;
24216;SDS011;12356;49.386;8.688;2022-10-22T12:29:25;3.00;;;1.00;;
24216;SDS011;12356;49.386;8.688;2022-10-22T12:32:01;3.78;;;1.00;;
24216;SDS011;12356;49.386;8.688;2022-10-22T12:34:32;2.40;;;1.38;;
24216;SDS011;12356;49.386;8.688;2022-10-22T12:37:03;2.55;;;1.20;;
24216;SDS011;12356;49.386;8.688;2022-10-22T12:39:35;5.30;;;1.20;;
24216;SDS011;12356;49.386;8.688;2022-10-22T12:42:06;2.17;;;1.10;;
24216;SDS011;12356;49.386;8.688;2022-10-22T12:44:44;3.80;;;1.10;;
24216;SDS011;12356;49.386;8.688;2022-10-22T12:47:15;5.78;;;1.02;;
24216;SDS011;12356;49.386;8.688;2022-10-22T12:49:48;2.53;;;1.00;;
24216;SDS011;12356;49.386;8.688;2022-10-22T12:52:20;3.22;;;1.00;;
24216;SDS011;12356;49.386;8.688;2022-10-22T12:54:52;6.53;;;1.20;;
24216;SDS011;12356;49.386;8.688;2022-10-22T12:57:23;3.30;;;1.20;;
24216;SDS011;12356;49.386;8.688;2022-10-22T12:59:54;3.35;;;1.27;;
24216;SDS011;12356;49.386;8.688;2022-10-22T13:02:25;3.83;;;1.48;;
24216;SDS011;12356;49.386;8.688;2022-10-22T13:08:04;6.85;;;1.10;;
24216;SDS011;12356;49.386;8.688;2022-10-22T13:13:27;2.75;;;1.00;;
24216;SDS011;12356;49.386;8.688;2022-10-22T13:18:54;6.55;;;1.10;;
24216;SDS011;12356;49.386;8.688;2022-10-22T13:24:17;3.78;;;1.17;;
24216;SDS011;12356;49.386;8.688;2022-10-22T13:26:51;3.08;;;1.00;;
24216;SDS011;12356;49.386;8.688;2022-10-22T13:29:23;3.35;;;1.10;;
24216;SDS011;12356;49.386;8.688;2022-10-22T13:31:54;4.90;;;1.05;;
24216;SDS011;12356;49.386;8.688;2022-10-22T13:34:24;4.85;;;0.82;;
24216;SDS011;12356;49.386;8.688;2022-10-22T13:36:56;3.72;;;1.05;;
24216;SDS011;12356;49.386;8.688;2022-10-22T13:39:26;4.60;;;1.20;;
24216;SDS011;12356;49.386;8.688;2022-10-22T13:41:57;3.03;;;1.10;;
24216;SDS011;12356;49.386;8.688;2022-10-22T13:44:27;3.70;;;1.30;;
24216;SDS011;12356;49.386;8.688;2022-10-22T13:46:58;4.85;;;1.23;;
24216;SDS011;12356;49.386;8.688;2022-10-22T13:49:29;4.75;;;1.30;;
24216;SDS011;12356;49.386;8.688;2022-10-22T13:51:59;3.28;;;1.05;;
24216;SDS011;12356;49.386;8.688;2022-10-22T13:54:30;3.38;;;1.13;;
24216;SDS011;12356;49.386;8.688;2022-10-22T13:57:00;6.07;;;1.30;;
24216;SDS011;12356;49.386;8.688;2022-10-22T13:59:31;4.22;;;1.33;;
24216;SDS011;12356;49.386;8.688;2022-10-22T14:02:02;3.03;;;1.00;;
24216;SDS011;12356;49.386;8.688;2022-10-22T14:04:35;4.25;;;1.20;;
24216;SDS011;12356;49.386;8.688;2022-10-22T14:07:15;3.53;;;1.20;;
24216;SDS011;12356;49.386;8.688;2022-10-22T14:09:46;4.20;;;1.00;;
24216;SDS011;12356;49.386;8.688;2022-10-22T14:12:17;3.13;;;1.13;;
24216;SDS011;12356;49.386;8.688;2022-10-22T14:14:47;5.32;;;1.20;;
24216;SDS011;12356;49.386;8.688;2022-10-22T14:17:18;4.30;;;1.25;;
24216;SDS011;12356;49.386;8.688;2022-10-22T14:19:49;4.47;;;1.33;;
24216;SDS011;12356;49.386;8.688;2022-10-22T14:22:26;3.65;;;1.20;;
24216;SDS011;12356;49.386;8.688;2022-10-22T14:24:57;3.00;;;1.00;;
24216;SDS011;12356;49.386;8.688;2022-10-22T14:27:28;4.93;;;1.52;;
24216;SDS011;12356;49.386;8.688;2022-10-22T14:29:59;6.82;;;1.63;;
24216;SDS011;12356;49.386;8.688;2022-10-22T14:32:29;3.63;;;1.80;;
24216;SDS011;12356;49.386;8.688;2022-10-22T14:35:00;6.82;;;1.55;;
24216;SDS011;12356;49.386;8.688;2022-10-22T14:37:31;5.22;;;1.33;;
24216;SDS011;12356;49.386;8.688;2022-10-22T14:40:01;5.15;;;1.50;;
24216;SDS011;12356;49.386;8.688;2022-10-22T14:42:33;7.85;;;1.52;;
24216;SDS011;12356;49.386;8.688;2022-10-22T14:45:27;4.00;;;1.35;;
24216;SDS011;12356;49.386;8.688;2022-10-22T14:47:58;3.20;;;1.02;;
24216;SDS011;12356;49.386;8.688;2022-10-22T14:50:29;8.95;;;1.30;;
24216;SDS011;12356;49.386;8.688;2022-10-22T14:52:59;7.78;;;1.50;;
24216;SDS011;12356;49.386;8.688;2022-10-22T14:55:30;4.38;;;1.42;;
24216;SDS011;12356;49.386;8.688;2022-10-22T14:58:00;4.65;;;1.30;;
24216;SDS011;12356;49.386;8.688;2022-10-22T15:00:31;4.78;;;1.23;;
24216;SDS011;12356;49.386;8.688;2022-10-22T15:03:05;4.20;;;1.02;;
24216;SDS011;12356;49.386;8.688;2022-10-22T15:05:39;6.22;;;1.40;;
24216;SDS011;12356;49.386;8.688;2022-10-22T15:08:13;4.95;;;1.67;;
24216;SDS011;12356;49.386;8.688;2022-10-22T15:10:44;8.18;;;1.30;;
24216;SDS011;12356;49.386;8.688;2022-10-22T15:13:15;6.65;;;1.48;;
24216;SDS011;12356;49.386;8.688;2022-10-22T15:15:45;7.43;;;1.52;;
24216;SDS011;12356;49.386;8.688;2022-10-22T15:18:16;9.02;;;1.88;;
24216;SDS011;12356;49.386;8.688;2022-10-22T15:20:53;4.03;;;1.63;;
24216;SDS011;12356;49.386;8.688;2022-10-22T15:23:25;11.63;;;1.85;;
24216;SDS011;12356;49.386;8.688;2022-10-22T15:25:56;2.95;;;1.40;;
24216;SDS011;12356;49.386;8.688;2022-10-22T15:28:27;5.15;;;1.80;;
24216;SDS011;12356;49.386;8.688;2022-10-22T15:30:58;3.88;;;1.45;;
24216;SDS011;12356;49.386;8.688;2022-10-22T15:33:29;5.70;;;1.27;;
24216;SDS011;12356;49.386;8.688;2022-10-22T15:36:08;3.03;;;1.60;;
24216;SDS011;12356;49.386;8.688;2022-10-22T15:38:40;3.58;;;1.55;;
24216;SDS011;12356;49.386;8.688;2022-10-22T15:41:11;4.45;;;1.30;;
24216;SDS011;12356;49.386;8.688;2022-10-22T15:43:42;4.93;;;1.40;;
24216;SDS011;12356;49.386;8.688;2022-10-22T15:46:14;3.55;;;1.30;;
24216;SDS011;12356;49.386;8.688;2022-10-22T15:48:46;4.28;;;1.48;;
24216;SDS011;12356;49.386;8.688;2022-10-22T15:51:17;3.60;;;1.20;;
24216;SDS011;12356;49.386;8.688;2022-10-22T15:53:52;8.10;;;1.40;;
24216;SDS011;12356;49.386;8.688;2022-10-22T15:56:25;4.35;;;1.40;;
24216;SDS011;12356;49.386;8.688;2022-10-22T15:58:58;4.28;;;1.30;;
24216;SDS011;12356;49.386;8.688;2022-10-22T16:01:32;15.05;;;1.80;;
24216;SDS011;12356;49.386;8.688;2022-10-22T16:04:04;6.10;;;1.50;;
24216;SDS011;12356;49.386;8.688;2022-10-22T16:06:37;11.82;;;2.40;;
24216;SDS011;12356;49.386;8.688;2022-10-22T16:09:11;8.90;;;2.40;;
24216;SDS011;12356;49.386;8.688;2022-10-22T16:11:44;7.55;;;2.33;;
24216;SDS011;12356;49.386;8.688;2022-10-22T16:14:16;12.52;;;2.85;;
24216;SDS011;12356;49.386;8.688;2022-10-22T16:16:50;8.52;;;3.13;;
24216;SDS011;12356;49.386;8.688;2022-10-22T16:19:23;14.48;;;4.78;;
24216;SDS011;12356;49.386;8.688;2022-10-22T16:21:54;13.73;;;5.28;;
24216;SDS011;12356;49.386;8.688;2022-10-22T16:24:25;11.85;;;4.68;;
24216;SDS011;12356;49.386;8.688;2022-10-22T16:26:56;11.48;;;4.43;;
24216;SDS011;12356;49.386;8.688;2022-10-22T16:29:27;15.13;;;4.20;;
24216;SDS011;12356;49.386;8.688;2022-10-22T16:31:58;9.15;;;3.60;;
24216;SDS011;12356;49.386;8.688;2022-10-22T16:34:28;11.52;;;3.30;;
24216;SDS011;12356;49.386;8.688;2022-10-22T16:36:59;8.48;;;2.78;;
24216;SDS011;12356;49.386;8.688;2022-10-22T16:39:30;11.88;;;3.03;;
24216;SDS011;12356;49.386;8.688;2022-10-22T16:42:00;17.17;;;3.40;;
24216;SDS011;12356;49.386;8.688;2022-10-22T16:44:31;8.77;;;3.22;;
24216;SDS011;12356;49.386;8.688;2022-10-22T16:47:01;8.05;;;3.60;;
24216;SDS011;12356;49.386;8.688;2022-10-22T16:49:32;9.48;;;4.00;;
24216;SDS011;12356;49.386;8.688;2022-10-22T16:52:03;9.90;;;3.85;;
24216;SDS011;12356;49.386;8.688;2022-10-22T16:54:33;13.40;;;3.67;;
24216;SDS011;12356;49.386;8.688;2022-10-22T16:57:04;10.00;;;4.10;;
24216;SDS011;12356;49.386;8.688;2022-10-22T16:59:34;14.55;;;4.65;;
24216;SDS011;12356;49.386;8.688;2022-10-22T17:02:05;11.20;;;5.20;;
24216;SDS011;12356;49.386;8.688;2022-10-22T17:04:36;13.15;;;6.10;;
24216;SDS011;12356;49.386;8.688;2022-10-22T17:07:07;12.43;;;6.15;;
24216;SDS011;12356;49.386;8.688;2022-10-22T17:09:37;21.02;;;9.07;;
24216;SDS011;12356;49.386;8.688;2022-10-22T17:12:08;17.20;;;7.60;;
24216;SDS011;12356;49.386;8.688;2022-10-22T17:14:38;14.05;;;6.85;;
24216;SDS011;12356;49.386;8.688;2022-10-22T17:17:09;15.63;;;6.25;;
24216;SDS011;12356;49.386;8.688;2022-10-22T17:19:40;17.50;;;6.35;;
24216;SDS011;12356;49.386;8.688;2022-10-22T17:22:10;12.45;;;5.60;;